sensor_id;sensor_type;location;lat;lon;timestamp;P1;durP1;ratioP1;P2;durP2;ratioP2
53022;SDS011;38913;44.338;11.206;2023-07-08T00:01:53;6.80;;;4.05;;
53022;SDS011;38913;44.338;11.206;2023-07-08T00:04:18;7.93;;;3.90;;
53022;SDS011;38913;44.338;11.206;2023-07-08T00:06:43;6.07;;;3.60;;
53022;SDS011;38913;44.338;11.206;2023-07-08T00:09:10;5.73;;;4.23;;
53022;SDS011;38913;44.338;11.206;2023-07-08T00:11:38;5.22;;;3.85;;
53022;SDS011;38913;44.338;11.206;2023-07-08T00:14:03;6.32;;;4.07;;
53022;SDS011;38913;44.338;11.206;2023-07-08T00:16:28;5.10;;;3.75;;
53022;SDS011;38913;44.338;11.206;2023-07-08T00:18:54;5.45;;;4.13;;
53022;SDS011;38913;44.338;11.206;2023-07-08T00:21:19;4.73;;;3.53;;
53022;SDS011;38913;44.338;11.206;2023-07-08T00:23:48;7.50;;;3.47;;
53022;SDS011;38913;44.338;11.206;2023-07-08T00:26:23;5.78;;;3.78;;
53022;SDS011;38913;44.338;11.206;2023-07-08T00:28:49;4.68;;;3.70;;
53022;SDS011;38913;44.338;11.206;2023-07-08T00:31:15;5.43;;;3.83;;
53022;SDS011;38913;44.338;11.206;2023-07-08T00:33:40;6.97;;;3.87;;
53022;SDS011;38913;44.338;11.206;2023-07-08T00:36:09;5.20;;;3.72;;
53022;SDS011;38913;44.338;11.206;2023-07-08T00:38:36;6.05;;;3.85;;
53022;SDS011;38913;44.338;11.206;2023-07-08T00:43:39;5.13;;;3.40;;
53022;SDS011;38913;44.338;11.206;2023-07-08T00:48:37;4.68;;;3.80;;
53022;SDS011;38913;44.338;11.206;2023-07-08T00:51:03;12.40;;;4.53;;
53022;SDS011;38913;44.338;11.206;2023-07-08T00:53:32;4.30;;;3.60;;
53022;SDS011;38913;44.338;11.206;2023-07-08T00:55:59;5.22;;;3.92;;
53022;SDS011;38913;44.338;11.206;2023-07-08T00:58:25;5.03;;;3.75;;
53022;SDS011;38913;44.338;11.206;2023-07-08T01:00:51;5.68;;;4.10;;
53022;SDS011;38913;44.338;11.206;2023-07-08T01:03:19;5.47;;;3.95;;
53022;SDS011;38913;44.338;11.206;2023-07-08T01:05:45;4.65;;;3.50;;
53022;SDS011;38913;44.338;11.206;2023-07-08T01:08:11;5.05;;;4.00;;
53022;SDS011;38913;44.338;11.206;2023-07-08T01:10:38;4.57;;;3.50;;
53022;SDS011;38913;44.338;11.206;2023-07-08T01:13:05;4.88;;;3.90;;
53022;SDS011;38913;44.338;11.206;2023-07-08T01:15:35;6.60;;;4.00;;
53022;SDS011;38913;44.338;11.206;2023-07-08T01:18:02;5.40;;;3.92;;
53022;SDS011;38913;44.338;11.206;2023-07-08T01:20:27;4.50;;;3.47;;
53022;SDS011;38913;44.338;11.206;2023-07-08T01:22:52;4.93;;;3.50;;
53022;SDS011;38913;44.338;11.206;2023-07-08T01:25:18;6.57;;;4.10;;
53022;SDS011;38913;44.338;11.206;2023-07-08T01:27:45;4.85;;;3.58;;
53022;SDS011;38913;44.338;11.206;2023-07-08T01:30:12;5.03;;;3.92;;
53022;SDS011;38913;44.338;11.206;2023-07-08T01:32:39;7.20;;;4.15;;
53022;SDS011;38913;44.338;11.206;2023-07-08T01:35:05;4.30;;;3.58;;
53022;SDS011;38913;44.338;11.206;2023-07-08T01:39:56;6.43;;;3.80;;
53022;SDS011;38913;44.338;11.206;2023-07-08T01:42:22;4.82;;;3.53;;
53022;SDS011;38913;44.338;11.206;2023-07-08T01:44:48;6.35;;;4.22;;
53022;SDS011;38913;44.338;11.206;2023-07-08T01:47:16;5.03;;;3.92;;
53022;SDS011;38913;44.338;11.206;2023-07-08T01:49:42;4.45;;;3.55;;
53022;SDS011;38913;44.338;11.206;2023-07-08T01:52:09;5.88;;;3.90;;
53022;SDS011;38913;44.338;11.206;2023-07-08T01:54:35;5.97;;;3.83;;
53022;SDS011;38913;44.338;11.206;2023-07-08T01:57:00;4.63;;;3.70;;
53022;SDS011;38913;44.338;11.206;2023-07-08T01:59:27;5.40;;;3.85;;
53022;SDS011;38913;44.338;11.206;2023-07-08T02:01:53;4.75;;;3.75;;
53022;SDS011;38913;44.338;11.206;2023-07-08T02:04:21;6.50;;;3.80;;
53022;SDS011;38913;44.338;11.206;2023-07-08T02:06:56;5.50;;;3.92;;
53022;SDS011;38913;44.338;11.206;2023-07-08T02:09:22;6.10;;;4.18;;
53022;SDS011;38913;44.338;11.206;2023-07-08T02:11:48;5.22;;;4.03;;
53022;SDS011;38913;44.338;11.206;2023-07-08T02:14:13;5.33;;;3.70;;
53022;SDS011;38913;44.338;11.206;2023-07-08T02:16:38;7.17;;;3.90;;
53022;SDS011;38913;44.338;11.206;2023-07-08T02:19:03;4.43;;;3.53;;
53022;SDS011;38913;44.338;11.206;2023-07-08T02:21:29;5.77;;;4.00;;
53022;SDS011;38913;44.338;11.206;2023-07-08T02:23:56;5.97;;;3.97;;
53022;SDS011;38913;44.338;11.206;2023-07-08T02:26:21;5.28;;;3.78;;
53022;SDS011;38913;44.338;11.206;2023-07-08T02:28:47;5.25;;;3.97;;
53022;SDS011;38913;44.338;11.206;2023-07-08T02:31:12;4.75;;;3.58;;
53022;SDS011;38913;44.338;11.206;2023-07-08T02:33:37;5.67;;;3.50;;
53022;SDS011;38913;44.338;11.206;2023-07-08T02:36:03;5.83;;;3.90;;
53022;SDS011;38913;44.338;11.206;2023-07-08T02:38:28;6.22;;;4.38;;
53022;SDS011;38913;44.338;11.206;2023-07-08T02:40:53;4.70;;;3.47;;
53022;SDS011;38913;44.338;11.206;2023-07-08T02:43:18;5.73;;;4.10;;
53022;SDS011;38913;44.338;11.206;2023-07-08T02:45:44;4.47;;;3.70;;
53022;SDS011;38913;44.338;11.206;2023-07-08T02:48:09;6.93;;;3.97;;
53022;SDS011;38913;44.338;11.206;2023-07-08T02:50:34;5.13;;;4.07;;
53022;SDS011;38913;44.338;11.206;2023-07-08T02:52:59;5.03;;;3.83;;
53022;SDS011;38913;44.338;11.206;2023-07-08T02:55:25;5.22;;;3.67;;
53022;SDS011;38913;44.338;11.206;2023-07-08T02:57:50;6.43;;;4.33;;
53022;SDS011;38913;44.338;11.206;2023-07-08T03:00:15;6.13;;;3.50;;
53022;SDS011;38913;44.338;11.206;2023-07-08T03:02:40;7.53;;;4.05;;
53022;SDS011;38913;44.338;11.206;2023-07-08T03:05:06;4.33;;;3.57;;
53022;SDS011;38913;44.338;11.206;2023-07-08T03:07:31;6.22;;;3.50;;
53022;SDS011;38913;44.338;11.206;2023-07-08T03:09:57;6.45;;;3.63;;
53022;SDS011;38913;44.338;11.206;2023-07-08T03:12:22;5.17;;;3.77;;
53022;SDS011;38913;44.338;11.206;2023-07-08T03:14:47;4.80;;;3.80;;
53022;SDS011;38913;44.338;11.206;2023-07-08T03:17:12;4.70;;;3.60;;
53022;SDS011;38913;44.338;11.206;2023-07-08T03:19:38;5.73;;;3.60;;
53022;SDS011;38913;44.338;11.206;2023-07-08T03:22:03;6.83;;;4.30;;
53022;SDS011;38913;44.338;11.206;2023-07-08T03:24:30;4.60;;;3.88;;
53022;SDS011;38913;44.338;11.206;2023-07-08T03:26:55;5.53;;;3.90;;
53022;SDS011;38913;44.338;11.206;2023-07-08T03:29:22;4.30;;;3.28;;
53022;SDS011;38913;44.338;11.206;2023-07-08T03:31:48;4.85;;;3.10;;
53022;SDS011;38913;44.338;11.206;2023-07-08T03:34:14;4.60;;;3.90;;
53022;SDS011;38913;44.338;11.206;2023-07-08T03:36:43;4.40;;;3.40;;
53022;SDS011;38913;44.338;11.206;2023-07-08T03:39:13;5.00;;;3.78;;
53022;SDS011;38913;44.338;11.206;2023-07-08T03:41:39;4.05;;;3.53;;
53022;SDS011;38913;44.338;11.206;2023-07-08T03:44:04;4.97;;;3.53;;
53022;SDS011;38913;44.338;11.206;2023-07-08T03:46:29;5.27;;;3.60;;
53022;SDS011;38913;44.338;11.206;2023-07-08T03:48:54;5.30;;;3.13;;
53022;SDS011;38913;44.338;11.206;2023-07-08T03:51:22;5.15;;;3.55;;
53022;SDS011;38913;44.338;11.206;2023-07-08T03:53:47;4.50;;;3.63;;
53022;SDS011;38913;44.338;11.206;2023-07-08T03:56:13;4.82;;;3.33;;
53022;SDS011;38913;44.338;11.206;2023-07-08T03:58:38;6.22;;;3.70;;
53022;SDS011;38913;44.338;11.206;2023-07-08T04:01:04;4.43;;;3.00;;
53022;SDS011;38913;44.338;11.206;2023-07-08T04:03:30;5.10;;;3.65;;
53022;SDS011;38913;44.338;11.206;2023-07-08T04:05:55;5.28;;;3.35;;
53022;SDS011;38913;44.338;11.206;2023-07-08T04:08:20;4.63;;;3.38;;
53022;SDS011;38913;44.338;11.206;2023-07-08T04:10:45;4.00;;;3.17;;
53022;SDS011;38913;44.338;11.206;2023-07-08T04:13:11;5.90;;;3.30;;
53022;SDS011;38913;44.338;11.206;2023-07-08T04:15:36;5.13;;;3.30;;
53022;SDS011;38913;44.338;11.206;2023-07-08T04:18:01;4.63;;;3.30;;
53022;SDS011;38913;44.338;11.206;2023-07-08T04:20:27;4.10;;;3.08;;
53022;SDS011;38913;44.338;11.206;2023-07-08T04:22:52;4.28;;;3.75;;
53022;SDS011;38913;44.338;11.206;2023-07-08T04:25:18;4.80;;;3.17;;
53022;SDS011;38913;44.338;11.206;2023-07-08T04:27:43;4.07;;;3.10;;
53022;SDS011;38913;44.338;11.206;2023-07-08T04:30:13;3.97;;;3.23;;
53022;SDS011;38913;44.338;11.206;2023-07-08T04:32:41;4.45;;;3.10;;
53022;SDS011;38913;44.338;11.206;2023-07-08T04:35:07;4.50;;;3.03;;
53022;SDS011;38913;44.338;11.206;2023-07-08T04:37:33;4.03;;;3.15;;
53022;SDS011;38913;44.338;11.206;2023-07-08T04:39:58;4.30;;;3.00;;
53022;SDS011;38913;44.338;11.206;2023-07-08T04:42:25;4.60;;;2.92;;
53022;SDS011;38913;44.338;11.206;2023-07-08T04:44:53;4.35;;;3.30;;
53022;SDS011;38913;44.338;11.206;2023-07-08T04:47:19;6.05;;;3.33;;
53022;SDS011;38913;44.338;11.206;2023-07-08T04:49:45;4.70;;;3.30;;
53022;SDS011;38913;44.338;11.206;2023-07-08T04:52:12;3.67;;;2.75;;
53022;SDS011;38913;44.338;11.206;2023-07-08T04:54:37;5.95;;;3.03;;
53022;SDS011;38913;44.338;11.206;2023-07-08T04:57:02;3.30;;;3.00;;
53022;SDS011;38913;44.338;11.206;2023-07-08T04:59:28;5.93;;;2.80;;
53022;SDS011;38913;44.338;11.206;2023-07-08T05:01:53;3.97;;;3.07;;
53022;SDS011;38913;44.338;11.206;2023-07-08T05:04:19;5.53;;;3.30;;
53022;SDS011;38913;44.338;11.206;2023-07-08T05:06:44;5.28;;;2.92;;
53022;SDS011;38913;44.338;11.206;2023-07-08T05:09:10;4.13;;;2.83;;
53022;SDS011;38913;44.338;11.206;2023-07-08T05:11:35;4.38;;;2.88;;
53022;SDS011;38913;44.338;11.206;2023-07-08T05:14:01;3.88;;;2.83;;
53022;SDS011;38913;44.338;11.206;2023-07-08T05:16:27;4.15;;;3.30;;
53022;SDS011;38913;44.338;11.206;2023-07-08T05:18:52;3.95;;;2.90;;
53022;SDS011;38913;44.338;11.206;2023-07-08T05:21:18;3.72;;;2.80;;
53022;SDS011;38913;44.338;11.206;2023-07-08T05:23:44;5.07;;;2.72;;
53022;SDS011;38913;44.338;11.206;2023-07-08T05:26:09;4.10;;;3.25;;
53022;SDS011;38913;44.338;11.206;2023-07-08T05:28:34;3.92;;;2.80;;
53022;SDS011;38913;44.338;11.206;2023-07-08T05:31:00;3.90;;;2.65;;
53022;SDS011;38913;44.338;11.206;2023-07-08T05:33:26;2.83;;;2.50;;
53022;SDS011;38913;44.338;11.206;2023-07-08T05:35:51;4.82;;;2.83;;
53022;SDS011;38913;44.338;11.206;2023-07-08T05:38:17;4.00;;;2.88;;
53022;SDS011;38913;44.338;11.206;2023-07-08T05:40:42;5.20;;;2.80;;
53022;SDS011;38913;44.338;11.206;2023-07-08T05:43:08;4.75;;;2.60;;
53022;SDS011;38913;44.338;11.206;2023-07-08T05:45:33;3.87;;;2.70;;
53022;SDS011;38913;44.338;11.206;2023-07-08T05:48:00;5.65;;;2.70;;
53022;SDS011;38913;44.338;11.206;2023-07-08T05:50:25;4.18;;;3.05;;
53022;SDS011;38913;44.338;11.206;2023-07-08T05:52:51;4.73;;;2.80;;
53022;SDS011;38913;44.338;11.206;2023-07-08T05:55:16;3.63;;;2.90;;
53022;SDS011;38913;44.338;11.206;2023-07-08T05:57:41;4.70;;;2.87;;
53022;SDS011;38913;44.338;11.206;2023-07-08T06:00:07;3.13;;;2.60;;
53022;SDS011;38913;44.338;11.206;2023-07-08T06:02:32;3.75;;;2.80;;
53022;SDS011;38913;44.338;11.206;2023-07-08T06:04:57;3.70;;;2.77;;
53022;SDS011;38913;44.338;11.206;2023-07-08T06:07:22;4.33;;;3.13;;
53022;SDS011;38913;44.338;11.206;2023-07-08T06:09:48;3.95;;;2.90;;
53022;SDS011;38913;44.338;11.206;2023-07-08T06:12:13;5.87;;;3.20;;
53022;SDS011;38913;44.338;11.206;2023-07-08T06:14:38;5.10;;;2.80;;
53022;SDS011;38913;44.338;11.206;2023-07-08T06:17:04;3.33;;;2.50;;
53022;SDS011;38913;44.338;11.206;2023-07-08T06:19:29;3.15;;;2.55;;
53022;SDS011;38913;44.338;11.206;2023-07-08T06:21:54;4.33;;;3.00;;
53022;SDS011;38913;44.338;11.206;2023-07-08T06:24:20;4.00;;;2.73;;
53022;SDS011;38913;44.338;11.206;2023-07-08T06:26:45;3.70;;;2.70;;
53022;SDS011;38913;44.338;11.206;2023-07-08T06:29:11;3.30;;;2.80;;
53022;SDS011;38913;44.338;11.206;2023-07-08T06:31:36;4.45;;;3.03;;
53022;SDS011;38913;44.338;11.206;2023-07-08T06:34:01;3.47;;;2.67;;
53022;SDS011;38913;44.338;11.206;2023-07-08T06:36:27;4.15;;;2.42;;
53022;SDS011;38913;44.338;11.206;2023-07-08T06:38:52;4.20;;;2.87;;
53022;SDS011;38913;44.338;11.206;2023-07-08T06:41:17;3.83;;;2.47;;
53022;SDS011;38913;44.338;11.206;2023-07-08T06:43:43;4.80;;;2.90;;
53022;SDS011;38913;44.338;11.206;2023-07-08T06:46:08;4.80;;;2.75;;
53022;SDS011;38913;44.338;11.206;2023-07-08T06:48:33;4.10;;;2.77;;
53022;SDS011;38913;44.338;11.206;2023-07-08T06:50:58;3.00;;;2.37;;
53022;SDS011;38913;44.338;11.206;2023-07-08T06:53:24;4.03;;;2.57;;
53022;SDS011;38913;44.338;11.206;2023-07-08T06:55:49;4.70;;;2.75;;
53022;SDS011;38913;44.338;11.206;2023-07-08T06:58:14;3.63;;;2.80;;
53022;SDS011;38913;44.338;11.206;2023-07-08T07:00:43;3.77;;;2.73;;
53022;SDS011;38913;44.338;11.206;2023-07-08T07:03:09;5.82;;;3.00;;
53022;SDS011;38913;44.338;11.206;2023-07-08T07:05:34;5.82;;;3.30;;
53022;SDS011;38913;44.338;11.206;2023-07-08T07:08:00;4.60;;;2.67;;
53022;SDS011;38913;44.338;11.206;2023-07-08T07:10:25;3.03;;;2.55;;
53022;SDS011;38913;44.338;11.206;2023-07-08T07:12:50;5.80;;;2.50;;
53022;SDS011;38913;44.338;11.206;2023-07-08T07:15:15;2.80;;;2.47;;
53022;SDS011;38913;44.338;11.206;2023-07-08T07:17:41;3.33;;;2.53;;
53022;SDS011;38913;44.338;11.206;2023-07-08T07:20:06;5.00;;;2.50;;
53022;SDS011;38913;44.338;11.206;2023-07-08T07:22:32;4.68;;;2.90;;
53022;SDS011;38913;44.338;11.206;2023-07-08T07:24:58;3.95;;;2.47;;
53022;SDS011;38913;44.338;11.206;2023-07-08T07:27:23;3.58;;;2.33;;
53022;SDS011;38913;44.338;11.206;2023-07-08T07:29:49;4.43;;;2.30;;
53022;SDS011;38913;44.338;11.206;2023-07-08T07:32:15;3.63;;;2.33;;
53022;SDS011;38913;44.338;11.206;2023-07-08T07:34:41;3.58;;;2.35;;
53022;SDS011;38913;44.338;11.206;2023-07-08T07:37:08;4.65;;;2.45;;
53022;SDS011;38913;44.338;11.206;2023-07-08T07:39:35;3.97;;;2.58;;
53022;SDS011;38913;44.338;11.206;2023-07-08T07:42:00;3.45;;;2.75;;
53022;SDS011;38913;44.338;11.206;2023-07-08T07:44:25;3.90;;;2.60;;
53022;SDS011;38913;44.338;11.206;2023-07-08T07:46:52;4.17;;;2.63;;
53022;SDS011;38913;44.338;11.206;2023-07-08T07:49:17;4.30;;;2.50;;
53022;SDS011;38913;44.338;11.206;2023-07-08T07:51:42;3.17;;;2.33;;
53022;SDS011;38913;44.338;11.206;2023-07-08T07:54:08;3.27;;;2.70;;
53022;SDS011;38913;44.338;11.206;2023-07-08T07:56:33;3.77;;;2.27;;
53022;SDS011;38913;44.338;11.206;2023-07-08T07:58:58;3.70;;;2.50;;
53022;SDS011;38913;44.338;11.206;2023-07-08T08:01:23;5.83;;;2.87;;
53022;SDS011;38913;44.338;11.206;2023-07-08T08:03:49;4.15;;;2.38;;
53022;SDS011;38913;44.338;11.206;2023-07-08T08:06:17;3.72;;;2.22;;
53022;SDS011;38913;44.338;11.206;2023-07-08T08:08:43;2.83;;;2.30;;
53022;SDS011;38913;44.338;11.206;2023-07-08T08:11:08;4.07;;;2.38;;
53022;SDS011;38913;44.338;11.206;2023-07-08T08:13:33;3.43;;;2.33;;
53022;SDS011;38913;44.338;11.206;2023-07-08T08:15:59;4.30;;;2.43;;
53022;SDS011;38913;44.338;11.206;2023-07-08T08:18:24;5.90;;;2.80;;
53022;SDS011;38913;44.338;11.206;2023-07-08T08:20:50;4.72;;;2.67;;
53022;SDS011;38913;44.338;11.206;2023-07-08T08:23:15;3.78;;;2.55;;
53022;SDS011;38913;44.338;11.206;2023-07-08T08:25:40;3.53;;;2.40;;
53022;SDS011;38913;44.338;11.206;2023-07-08T08:28:06;4.97;;;2.83;;
53022;SDS011;38913;44.338;11.206;2023-07-08T08:30:31;3.63;;;2.70;;
53022;SDS011;38913;44.338;11.206;2023-07-08T08:32:56;3.67;;;2.60;;
53022;SDS011;38913;44.338;11.206;2023-07-08T08:35:22;4.60;;;2.77;;
53022;SDS011;38913;44.338;11.206;2023-07-08T08:37:47;5.27;;;2.50;;
53022;SDS011;38913;44.338;11.206;2023-07-08T08:40:13;4.33;;;2.70;;
53022;SDS011;38913;44.338;11.206;2023-07-08T08:42:43;3.67;;;2.70;;
53022;SDS011;38913;44.338;11.206;2023-07-08T08:45:12;3.33;;;2.70;;
53022;SDS011;38913;44.338;11.206;2023-07-08T08:47:39;4.32;;;2.92;;
53022;SDS011;38913;44.338;11.206;2023-07-08T08:50:52;5.72;;;2.90;;
53022;SDS011;38913;44.338;11.206;2023-07-08T08:52:52;3.20;;;2.17;;
53022;SDS011;38913;44.338;11.206;2023-07-08T08:55:20;4.40;;;2.50;;
53022;SDS011;38913;44.338;11.206;2023-07-08T08:57:49;3.22;;;2.50;;
53022;SDS011;38913;44.338;11.206;2023-07-08T09:00:16;5.47;;;2.97;;
53022;SDS011;38913;44.338;11.206;2023-07-08T09:05:12;3.85;;;2.35;;
53022;SDS011;38913;44.338;11.206;2023-07-08T09:07:43;3.88;;;2.60;;
53022;SDS011;38913;44.338;11.206;2023-07-08T09:12:55;3.28;;;2.40;;
53022;SDS011;38913;44.338;11.206;2023-07-08T09:15:22;4.07;;;2.40;;
53022;SDS011;38913;44.338;11.206;2023-07-08T09:17:47;4.77;;;2.43;;
53022;SDS011;38913;44.338;11.206;2023-07-08T09:20:22;4.32;;;2.70;;
53022;SDS011;38913;44.338;11.206;2023-07-08T09:22:53;4.45;;;2.80;;
53022;SDS011;38913;44.338;11.206;2023-07-08T09:25:26;3.55;;;2.70;;
53022;SDS011;38913;44.338;11.206;2023-07-08T09:27:53;4.07;;;2.40;;
53022;SDS011;38913;44.338;11.206;2023-07-08T09:30:19;4.10;;;2.83;;
53022;SDS011;38913;44.338;11.206;2023-07-08T09:32:45;4.80;;;2.85;;
53022;SDS011;38913;44.338;11.206;2023-07-08T09:35:17;3.85;;;2.78;;
53022;SDS011;38913;44.338;11.206;2023-07-08T09:37:44;3.70;;;2.65;;
53022;SDS011;38913;44.338;11.206;2023-07-08T09:42:38;4.85;;;2.70;;
53022;SDS011;38913;44.338;11.206;2023-07-08T09:45:11;4.63;;;2.95;;
53022;SDS011;38913;44.338;11.206;2023-07-08T09:47:37;3.55;;;2.65;;
53022;SDS011;38913;44.338;11.206;2023-07-08T09:50:15;5.88;;;2.80;;
53022;SDS011;38913;44.338;11.206;2023-07-08T09:52:42;3.20;;;2.70;;
53022;SDS011;38913;44.338;11.206;2023-07-08T09:55:10;4.10;;;2.77;;
53022;SDS011;38913;44.338;11.206;2023-07-08T09:57:35;4.47;;;3.10;;
53022;SDS011;38913;44.338;11.206;2023-07-08T10:00:08;3.75;;;2.63;;
53022;SDS011;38913;44.338;11.206;2023-07-08T10:05:12;3.45;;;2.55;;
53022;SDS011;38913;44.338;11.206;2023-07-08T10:07:38;4.60;;;2.90;;
53022;SDS011;38913;44.338;11.206;2023-07-08T10:10:06;5.23;;;2.90;;
53022;SDS011;38913;44.338;11.206;2023-07-08T10:12:33;4.30;;;3.03;;
53022;SDS011;38913;44.338;11.206;2023-07-08T10:15:00;3.83;;;2.75;;
53022;SDS011;38913;44.338;11.206;2023-07-08T10:17:28;3.53;;;2.85;;
53022;SDS011;38913;44.338;11.206;2023-07-08T10:19:55;5.13;;;3.00;;
53022;SDS011;38913;44.338;11.206;2023-07-08T10:24:57;3.53;;;2.95;;
53022;SDS011;38913;44.338;11.206;2023-07-08T10:32:37;4.10;;;2.77;;
53022;SDS011;38913;44.338;11.206;2023-07-08T10:35:12;3.92;;;2.90;;
53022;SDS011;38913;44.338;11.206;2023-07-08T10:37:47;4.43;;;2.88;;
53022;SDS011;38913;44.338;11.206;2023-07-08T10:40:49;5.25;;;2.80;;
53022;SDS011;38913;44.338;11.206;2023-07-08T10:43:28;4.80;;;3.05;;
53022;SDS011;38913;44.338;11.206;2023-07-08T10:46:41;7.00;;;3.85;;
53022;SDS011;38913;44.338;11.206;2023-07-08T11:01:45;5.40;;;3.20;;
53022;SDS011;38913;44.338;11.206;2023-07-08T11:09:35;3.97;;;2.77;;
53022;SDS011;38913;44.338;11.206;2023-07-08T11:19:29;4.57;;;3.03;;
53022;SDS011;38913;44.338;11.206;2023-07-08T11:21:57;3.90;;;2.65;;
53022;SDS011;38913;44.338;11.206;2023-07-08T11:24:32;3.70;;;2.97;;
53022;SDS011;38913;44.338;11.206;2023-07-08T11:32:20;3.90;;;2.88;;
53022;SDS011;38913;44.338;11.206;2023-07-08T11:34:46;4.15;;;2.90;;
53022;SDS011;38913;44.338;11.206;2023-07-08T11:37:13;3.88;;;2.80;;
53022;SDS011;38913;44.338;11.206;2023-07-08T11:39:43;3.90;;;2.70;;
53022;SDS011;38913;44.338;11.206;2023-07-08T11:44:41;4.15;;;2.70;;
53022;SDS011;38913;44.338;11.206;2023-07-08T11:47:12;3.78;;;2.65;;
53022;SDS011;38913;44.338;11.206;2023-07-08T11:49:40;4.35;;;2.70;;
53022;SDS011;38913;44.338;11.206;2023-07-08T11:52:08;4.90;;;3.10;;
53022;SDS011;38913;44.338;11.206;2023-07-08T11:54:35;3.40;;;2.60;;
53022;SDS011;38913;44.338;11.206;2023-07-08T11:57:04;4.22;;;2.78;;
53022;SDS011;38913;44.338;11.206;2023-07-08T11:59:36;4.03;;;2.92;;
53022;SDS011;38913;44.338;11.206;2023-07-08T12:02:18;3.35;;;2.63;;
53022;SDS011;38913;44.338;11.206;2023-07-08T12:04:57;3.85;;;2.78;;
53022;SDS011;38913;44.338;11.206;2023-07-08T12:10:22;3.55;;;2.85;;
53022;SDS011;38913;44.338;11.206;2023-07-08T12:12:50;4.18;;;2.65;;
53022;SDS011;38913;44.338;11.206;2023-07-08T12:15:17;3.60;;;3.00;;
53022;SDS011;38913;44.338;11.206;2023-07-08T12:17:45;3.45;;;2.70;;
53022;SDS011;38913;44.338;11.206;2023-07-08T12:20:26;4.38;;;2.75;;
53022;SDS011;38913;44.338;11.206;2023-07-08T12:22:51;4.40;;;2.97;;
53022;SDS011;38913;44.338;11.206;2023-07-08T12:25:18;3.42;;;2.60;;
53022;SDS011;38913;44.338;11.206;2023-07-08T12:27:45;3.10;;;2.58;;
53022;SDS011;38913;44.338;11.206;2023-07-08T12:30:11;2.95;;;2.40;;
53022;SDS011;38913;44.338;11.206;2023-07-08T12:32:36;3.38;;;2.65;;
53022;SDS011;38913;44.338;11.206;2023-07-08T12:35:02;3.85;;;3.00;;
53022;SDS011;38913;44.338;11.206;2023-07-08T12:37:29;4.03;;;3.00;;
53022;SDS011;38913;44.338;11.206;2023-07-08T12:39:56;3.90;;;2.90;;
53022;SDS011;38913;44.338;11.206;2023-07-08T12:42:24;4.43;;;3.05;;
53022;SDS011;38913;44.338;11.206;2023-07-08T12:47:35;3.63;;;2.40;;
53022;SDS011;38913;44.338;11.206;2023-07-08T12:50:00;4.22;;;3.03;;
53022;SDS011;38913;44.338;11.206;2023-07-08T12:52:26;3.92;;;2.83;;
53022;SDS011;38913;44.338;11.206;2023-07-08T12:54:51;3.47;;;2.73;;
53022;SDS011;38913;44.338;11.206;2023-07-08T12:57:16;3.83;;;2.60;;
53022;SDS011;38913;44.338;11.206;2023-07-08T12:59:43;3.45;;;2.70;;
53022;SDS011;38913;44.338;11.206;2023-07-08T13:02:18;4.07;;;2.83;;
53022;SDS011;38913;44.338;11.206;2023-07-08T13:04:44;4.05;;;2.53;;
53022;SDS011;38913;44.338;11.206;2023-07-08T13:09:55;4.45;;;2.70;;
53022;SDS011;38913;44.338;11.206;2023-07-08T13:12:21;5.10;;;3.15;;
53022;SDS011;38913;44.338;11.206;2023-07-08T13:14:50;4.03;;;2.80;;
53022;SDS011;38913;44.338;11.206;2023-07-08T13:17:16;5.43;;;3.13;;
53022;SDS011;38913;44.338;11.206;2023-07-08T13:19:42;4.22;;;2.90;;
53022;SDS011;38913;44.338;11.206;2023-07-08T13:22:15;5.10;;;3.10;;
53022;SDS011;38913;44.338;11.206;2023-07-08T13:24:41;5.20;;;2.80;;
53022;SDS011;38913;44.338;11.206;2023-07-08T13:27:08;3.55;;;3.08;;
53022;SDS011;38913;44.338;11.206;2023-07-08T13:29:35;3.55;;;2.70;;
53022;SDS011;38913;44.338;11.206;2023-07-08T13:32:03;4.22;;;2.92;;
53022;SDS011;38913;44.338;11.206;2023-07-08T13:34:30;3.58;;;2.65;;
53022;SDS011;38913;44.338;11.206;2023-07-08T13:36:56;3.90;;;2.78;;
53022;SDS011;38913;44.338;11.206;2023-07-08T13:39:31;3.97;;;3.10;;
53022;SDS011;38913;44.338;11.206;2023-07-08T13:41:57;6.18;;;3.30;;
53022;SDS011;38913;44.338;11.206;2023-07-08T13:44:24;4.13;;;2.80;;
53022;SDS011;38913;44.338;11.206;2023-07-08T13:49:23;4.70;;;3.10;;
53022;SDS011;38913;44.338;11.206;2023-07-08T13:51:49;4.23;;;2.60;;
53022;SDS011;38913;44.338;11.206;2023-07-08T13:54:18;3.97;;;3.08;;
53022;SDS011;38913;44.338;11.206;2023-07-08T13:56:44;4.65;;;2.78;;
53022;SDS011;38913;44.338;11.206;2023-07-08T13:59:10;3.93;;;2.57;;
53022;SDS011;38913;44.338;11.206;2023-07-08T14:01:38;4.72;;;2.85;;
53022;SDS011;38913;44.338;11.206;2023-07-08T14:04:04;4.65;;;2.85;;
53022;SDS011;38913;44.338;11.206;2023-07-08T14:06:31;4.85;;;2.85;;
53022;SDS011;38913;44.338;11.206;2023-07-08T14:08:57;3.20;;;2.70;;
53022;SDS011;38913;44.338;11.206;2023-07-08T14:11:23;3.92;;;2.83;;
53022;SDS011;38913;44.338;11.206;2023-07-08T14:13:48;9.70;;;2.92;;
53022;SDS011;38913;44.338;11.206;2023-07-08T14:16:23;4.33;;;2.80;;
53022;SDS011;38913;44.338;11.206;2023-07-08T14:18:50;4.38;;;3.33;;
53022;SDS011;38913;44.338;11.206;2023-07-08T14:21:15;3.63;;;2.53;;
53022;SDS011;38913;44.338;11.206;2023-07-08T14:23:40;4.38;;;3.00;;
53022;SDS011;38913;44.338;11.206;2023-07-08T14:26:09;3.73;;;2.60;;
53022;SDS011;38913;44.338;11.206;2023-07-08T14:28:35;3.38;;;2.58;;
53022;SDS011;38913;44.338;11.206;2023-07-08T14:31:00;4.40;;;2.87;;
53022;SDS011;38913;44.338;11.206;2023-07-08T14:33:26;4.32;;;3.28;;
53022;SDS011;38913;44.338;11.206;2023-07-08T14:35:51;4.87;;;3.33;;
53022;SDS011;38913;44.338;11.206;2023-07-08T14:38:16;4.13;;;3.20;;
53022;SDS011;38913;44.338;11.206;2023-07-08T14:40:42;3.60;;;2.70;;
53022;SDS011;38913;44.338;11.206;2023-07-08T14:45:43;5.55;;;3.15;;
53022;SDS011;38913;44.338;11.206;2023-07-08T14:48:10;4.45;;;2.97;;
53022;SDS011;38913;44.338;11.206;2023-07-08T14:50:35;4.68;;;2.83;;
53022;SDS011;38913;44.338;11.206;2023-07-08T14:53:01;4.60;;;2.92;;
53022;SDS011;38913;44.338;11.206;2023-07-08T14:55:27;5.18;;;3.00;;
53022;SDS011;38913;44.338;11.206;2023-07-08T14:57:52;4.25;;;3.00;;
53022;SDS011;38913;44.338;11.206;2023-07-08T15:00:18;5.60;;;2.85;;
53022;SDS011;38913;44.338;11.206;2023-07-08T15:02:44;4.45;;;3.28;;
53022;SDS011;38913;44.338;11.206;2023-07-08T15:05:13;4.60;;;2.85;;
53022;SDS011;38913;44.338;11.206;2023-07-08T15:07:39;5.60;;;3.10;;
53022;SDS011;38913;44.338;11.206;2023-07-08T15:10:06;5.03;;;2.70;;
53022;SDS011;38913;44.338;11.206;2023-07-08T15:12:31;3.88;;;2.70;;
53022;SDS011;38913;44.338;11.206;2023-07-08T15:14:57;4.75;;;3.05;;
53022;SDS011;38913;44.338;11.206;2023-07-08T15:17:22;6.43;;;3.40;;
53022;SDS011;38913;44.338;11.206;2023-07-08T15:19:47;4.70;;;2.95;;
53022;SDS011;38913;44.338;11.206;2023-07-08T15:22:13;4.15;;;3.10;;
53022;SDS011;38913;44.338;11.206;2023-07-08T15:24:38;5.32;;;2.92;;
53022;SDS011;38913;44.338;11.206;2023-07-08T15:27:04;4.25;;;2.97;;
53022;SDS011;38913;44.338;11.206;2023-07-08T15:29:29;3.28;;;2.67;;
53022;SDS011;38913;44.338;11.206;2023-07-08T15:31:55;3.78;;;2.72;;
53022;SDS011;38913;44.338;11.206;2023-07-08T15:34:21;2.97;;;2.60;;
53022;SDS011;38913;44.338;11.206;2023-07-08T15:36:46;4.47;;;3.08;;
53022;SDS011;38913;44.338;11.206;2023-07-08T15:39:12;4.35;;;2.85;;
53022;SDS011;38913;44.338;11.206;2023-07-08T15:41:40;3.67;;;2.70;;
53022;SDS011;38913;44.338;11.206;2023-07-08T15:44:09;4.82;;;3.25;;